createdAt,value
2019-02-05T00:04:46.788Z,21.10
2019-02-05T00:10:16.644Z,23.27
2019-02-05T00:15:46.050Z,18.37
2019-02-05T00:21:15.487Z,20.13
2019-02-05T00:26:44.901Z,20.80
2019-02-05T00:32:14.413Z,17.77
2019-02-05T00:37:43.986Z,21.13
2019-02-05T00:43:13.398Z,17.67
2019-02-05T00:48:42.811Z,18.23
2019-02-05T00:54:14.196Z,16.83
2019-02-05T00:59:43.647Z,18.77
2019-02-05T01:05:13.398Z,20.17
2019-02-05T01:10:42.800Z,20.30
2019-02-05T01:16:12.273Z,14.33
2019-02-05T01:21:41.951Z,18.27
2019-02-05T01:27:11.474Z,21.90
2019-02-05T01:32:40.978Z,17.63
2019-02-05T01:38:10.551Z,22.67
2019-02-05T01:43:39.992Z,20.10
2019-02-05T01:49:09.685Z,19.47
2019-02-05T01:54:39.008Z,17.43
2019-02-05T02:00:15.778Z,16.97
2019-02-05T02:05:45.479Z,18.87
2019-02-05T02:11:14.885Z,20.63
2019-02-05T02:16:45.572Z,22.10
2019-02-05T02:22:15.282Z,21.97
2019-02-05T02:27:45.003Z,23.33
2019-02-05T02:33:14.503Z,21.30
2019-02-05T02:38:44.037Z,21.70
2019-02-05T02:44:13.435Z,26.23
2019-02-05T02:49:42.902Z,25.17
2019-02-05T02:55:12.379Z,20.60
2019-02-05T03:00:41.989Z,20.80
2019-02-05T03:06:11.715Z,22.40
2019-02-05T03:11:41.050Z,23.63
2019-02-05T03:17:10.523Z,18.57
2019-02-05T03:22:40.003Z,23.43
2019-02-05T03:28:09.421Z,19.23
2019-02-05T03:33:38.870Z,21.07
2019-02-05T03:39:08.782Z,26.03
2019-02-05T03:44:38.270Z,18.97
2019-02-05T03:50:07.837Z,19.80
2019-02-05T03:55:50.891Z,16.83
2019-02-05T04:01:50.680Z,20.53
2019-02-05T04:07:36.926Z,18.33
2019-02-05T04:13:29.332Z,15.70
2019-02-05T04:19:09.174Z,18.07
2019-02-05T04:25:19.416Z,16.87
2019-02-05T04:31:05.273Z,18.87
2019-02-05T04:37:08.877Z,20.93
2019-02-05T04:42:48.663Z,19.17
2019-02-05T04:48:36.983Z,15.13
2019-02-05T04:54:46.003Z,20.23
2019-02-05T05:00:41.183Z,21.07
2019-02-05T05:06:45.620Z,15.90
2019-02-05T05:12:15.118Z,22.17
2019-02-05T05:17:48.580Z,16.90
2019-02-05T05:23:18.547Z,20.50
2019-02-05T05:28:48.174Z,23.43
2019-02-05T05:34:17.611Z,19.60
2019-02-05T05:39:46.959Z,21.67
2019-02-05T05:45:16.959Z,21.67
2019-02-05T05:50:46.320Z,24.67
2019-02-05T05:56:15.913Z,23.00
2019-02-05T06:01:45.369Z,23.30
2019-02-05T06:07:15.288Z,24.80
2019-02-05T06:12:44.915Z,25.80
2019-02-05T06:18:21.892Z,21.73
2019-02-05T06:23:51.747Z,23.17
2019-02-05T06:29:23.104Z,19.27
2019-02-05T06:35:00.735Z,21.10
2019-02-05T06:40:30.328Z,22.40
2019-02-05T06:46:06.827Z,25.20
2019-02-05T06:51:37.418Z,21.87
2019-02-05T06:57:07.162Z,23.60
2019-02-05T07:02:43.169Z,21.23
2019-02-05T07:08:14.070Z,21.70
2019-02-05T07:13:53.660Z,20.63
2019-02-05T07:19:23.487Z,23.40
2019-02-05T07:24:53.789Z,24.50
2019-02-05T07:30:27.187Z,21.63
2019-02-05T07:35:56.950Z,24.47
2019-02-05T07:41:28.961Z,21.93
2019-02-05T07:46:58.969Z,32.23
2019-02-05T07:52:29.386Z,30.00
2019-02-05T07:57:59.460Z,23.87
2019-02-05T08:03:29.534Z,21.27
2019-02-05T08:08:59.319Z,21.10
2019-02-05T08:14:29.193Z,19.67
2019-02-05T08:19:58.758Z,23.10
2019-02-05T08:25:28.676Z,19.30
2019-02-05T08:30:58.337Z,26.50
2019-02-05T08:36:27.936Z,22.00
2019-02-05T08:41:57.680Z,16.27
2019-02-05T08:47:27.327Z,21.00
2019-02-05T08:52:57.281Z,19.70
2019-02-05T08:58:31.081Z,21.90
2019-02-05T09:03:58.572Z,17.43
2019-02-05T09:09:28.386Z,54.77
2019-02-05T09:14:58.063Z,21.37
2019-02-05T09:20:27.831Z,19.30
2019-02-05T09:25:57.591Z,19.23
2019-02-05T09:31:27.427Z,18.13
2019-02-05T09:36:57.201Z,15.70
2019-02-05T09:42:27.080Z,18.47
2019-02-05T09:47:56.933Z,21.83
2019-02-05T09:53:26.853Z,17.90
2019-02-05T09:58:56.593Z,21.03
2019-02-05T10:04:26.219Z,19.73
2019-02-05T10:09:55.944Z,22.73
2019-02-05T10:15:32.112Z,20.07
2019-02-05T10:21:02.080Z,22.67
2019-02-05T10:26:31.993Z,20.97
2019-02-05T10:32:01.783Z,24.70
2019-02-05T10:37:31.672Z,23.67
2019-02-05T10:43:02.070Z,41.03
2019-02-05T10:48:31.590Z,26.23
2019-02-05T10:54:01.403Z,28.80
2019-02-05T10:59:31.551Z,25.47
2019-02-05T11:05:01.608Z,25.73
2019-02-05T11:10:31.342Z,25.00
2019-02-05T11:16:00.853Z,23.70
2019-02-05T11:21:30.606Z,21.80
2019-02-05T11:27:00.597Z,23.03
2019-02-05T11:32:30.345Z,18.50
2019-02-05T11:38:00.127Z,16.00
2019-02-05T11:43:29.722Z,16.13
2019-02-05T11:48:59.360Z,22.87
2019-02-05T11:54:29.177Z,18.57
2019-02-05T11:59:58.935Z,18.00
2019-02-05T12:05:28.740Z,17.07
2019-02-05T12:10:58.975Z,16.33
2019-02-05T12:16:28.909Z,26.50
2019-02-05T12:21:58.638Z,30.80
2019-02-05T12:27:28.405Z,31.40
2019-02-05T12:33:01.917Z,29.40
2019-02-05T12:38:31.185Z,32.93
2019-02-05T12:44:00.812Z,33.67
2019-02-05T12:49:30.392Z,35.43
2019-02-05T12:55:12.741Z,40.30
2019-02-05T13:00:38.195Z,42.30
2019-02-05T13:06:07.819Z,34.87
2019-02-05T13:11:37.268Z,38.90
2019-02-05T13:17:07.005Z,37.97
2019-02-05T13:22:36.413Z,44.60
2019-02-05T13:28:08.675Z,39.93
2019-02-05T13:33:38.221Z,44.00
2019-02-05T13:39:11.569Z,46.70
2019-02-05T13:44:41.146Z,45.93
2019-02-05T13:50:15.815Z,41.33
2019-02-05T13:55:46.094Z,43.57
2019-02-05T14:01:19.930Z,44.20
2019-02-05T14:06:50.255Z,41.27
2019-02-05T14:12:18.184Z,46.20
2019-02-05T14:17:47.669Z,43.20
2019-02-05T14:23:17.023Z,57.47
2019-02-05T14:28:46.413Z,46.73
2019-02-05T14:34:15.837Z,40.90
2019-02-05T14:39:45.279Z,48.13
2019-02-05T14:45:16.568Z,47.37
2019-02-05T14:50:48.343Z,42.50
2019-02-05T14:56:17.857Z,52.20
2019-02-05T15:01:47.292Z,60.63
2019-02-05T15:07:16.742Z,51.70
2019-02-05T15:12:46.671Z,60.23
2019-02-05T15:18:17.242Z,54.30
2019-02-05T15:23:46.730Z,52.20
2019-02-05T15:29:16.408Z,54.03
2019-02-05T15:34:45.827Z,52.83
2019-02-05T15:40:17.944Z,47.90
2019-02-05T15:45:47.693Z,58.07
2019-02-05T15:51:17.382Z,59.57
2019-02-05T15:56:46.870Z,56.13
2019-02-05T16:02:16.397Z,58.47
2019-02-05T16:07:45.962Z,67.90
2019-02-05T16:13:17.907Z,64.47
2019-02-05T16:18:53.343Z,67.53
2019-02-05T16:24:25.702Z,60.97
2019-02-05T16:29:55.467Z,61.60
2019-02-05T16:35:28.240Z,67.80
2019-02-05T16:40:57.800Z,109.47
2019-02-05T16:46:27.523Z,131.90
2019-02-05T16:51:57.562Z,94.97
2019-02-05T16:57:27.915Z,82.57
2019-02-05T17:03:01.051Z,220.97
2019-02-05T17:08:30.732Z,133.37
2019-02-05T17:14:00.410Z,197.13
2019-02-05T17:19:31.919Z,173.30
2019-02-05T17:25:01.883Z,200.00
2019-02-05T17:30:37.936Z,80.17
2019-02-05T17:36:07.462Z,229.20
2019-02-05T17:41:36.915Z,260.00
2019-02-05T17:47:06.391Z,127.17
2019-02-05T17:52:37.391Z,119.90
2019-02-05T17:58:07.760Z,103.53
2019-02-05T18:03:39.151Z,174.70
2019-02-05T18:09:11.170Z,199.73
2019-02-05T18:14:42.172Z,237.73
2019-02-05T18:20:11.984Z,132.17
2019-02-05T18:25:41.546Z,163.50
2019-02-05T18:31:11.408Z,136.90
2019-02-05T18:36:40.923Z,99.00
2019-02-05T18:42:10.578Z,204.23
2019-02-05T18:47:41.590Z,128.50
2019-02-05T18:53:12.547Z,137.83
2019-02-05T18:58:43.102Z,70.40
2019-02-05T19:04:12.561Z,102.27
2019-02-05T19:09:42.052Z,47.57
2019-02-05T19:15:21.656Z,113.57
2019-02-05T19:20:52.407Z,54.70
2019-02-05T19:26:22.236Z,106.93
2019-02-05T19:31:52.269Z,37.27
2019-02-05T19:37:27.663Z,42.13
2019-02-05T19:42:53.800Z,45.47
2019-02-05T19:48:39.482Z,40.37
2019-02-05T19:54:09.277Z,59.23
2019-02-05T19:59:38.823Z,52.33
2019-02-05T20:05:11.241Z,77.53
2019-02-05T20:10:40.804Z,73.77
2019-02-05T20:16:10.255Z,129.50
2019-02-05T20:21:39.871Z,177.97
2019-02-05T20:27:09.297Z,95.03
2019-02-05T20:32:38.794Z,90.67
2019-02-05T20:38:08.368Z,83.13
2019-02-05T20:43:37.732Z,162.07
2019-02-05T20:49:07.175Z,92.67
2019-02-05T20:54:36.585Z,69.20
2019-02-05T21:00:16.375Z,95.30
2019-02-05T21:05:45.689Z,266.13
2019-02-05T21:11:15.286Z,71.77
2019-02-05T21:16:45.229Z,69.60
2019-02-05T21:22:14.785Z,114.30
2019-02-05T21:27:44.528Z,66.27
2019-02-05T21:33:14.121Z,69.97
2019-02-05T21:38:45.518Z,55.73
2019-02-05T21:44:15.236Z,57.07
2019-02-05T21:49:44.624Z,66.47
2019-02-05T21:55:22.585Z,60.20
2019-02-05T22:00:52.447Z,52.43
2019-02-05T22:06:22.602Z,56.13
2019-02-05T22:11:52.208Z,72.03
2019-02-05T22:17:22.144Z,61.87
2019-02-05T22:22:56.025Z,66.53
2019-02-05T22:28:25.351Z,64.47
2019-02-05T22:33:55.422Z,89.07
2019-02-05T22:39:26.694Z,59.57
2019-02-05T22:44:56.532Z,109.53
2019-02-05T22:50:29.854Z,80.73
2019-02-05T22:55:59.514Z,186.07
2019-02-05T23:01:39.043Z,116.17
2019-02-05T23:07:11.723Z,82.90
2019-02-05T23:12:42.815Z,53.47
2019-02-05T23:18:12.477Z,161.93
2019-02-05T23:23:42.161Z,35.47
2019-02-05T23:29:11.559Z,71.03
2019-02-05T23:34:40.903Z,49.67
2019-02-05T23:40:12.274Z,54.43
2019-02-05T23:45:41.762Z,86.73
2019-02-05T23:51:11.408Z,37.93
2019-02-05T23:56:40.908Z,52.40
